sensor_id;sensor_type;location;lat;lon;timestamp;temperature;humidity
20881;DHT22;10600;53.096;8.802;2024-01-16T00:00:02;0.90;99.90
20881;DHT22;10600;53.096;8.802;2024-01-16T00:01:03;0.90;99.90
20881;DHT22;10600;53.096;8.802;2024-01-16T00:02:04;0.90;99.90
20881;DHT22;10600;53.096;8.802;2024-01-16T00:03:05;0.90;99.90
20881;DHT22;10600;53.096;8.802;2024-01-16T00:04:06;0.90;99.90
20881;DHT22;10600;53.096;8.802;2024-01-16T00:05:08;0.90;99.90
20881;DHT22;10600;53.096;8.802;2024-01-16T00:06:10;0.90;99.90
20881;DHT22;10600;53.096;8.802;2024-01-16T00:07:10;0.90;99.90
20881;DHT22;10600;53.096;8.802;2024-01-16T00:08:11;0.90;99.90
20881;DHT22;10600;53.096;8.802;2024-01-16T00:09:11;0.90;99.90
20881;DHT22;10600;53.096;8.802;2024-01-16T00:10:12;0.90;99.90
20881;DHT22;10600;53.096;8.802;2024-01-16T00:11:12;0.90;99.90
20881;DHT22;10600;53.096;8.802;2024-01-16T00:12:13;0.90;99.90
20881;DHT22;10600;53.096;8.802;2024-01-16T00:13:13;0.90;99.90
20881;DHT22;10600;53.096;8.802;2024-01-16T00:14:14;0.90;99.90
20881;DHT22;10600;53.096;8.802;2024-01-16T00:15:14;0.90;99.90
20881;DHT22;10600;53.096;8.802;2024-01-16T00:16:15;0.90;99.90
20881;DHT22;10600;53.096;8.802;2024-01-16T00:17:16;0.90;99.90
20881;DHT22;10600;53.096;8.802;2024-01-16T00:18:16;0.90;99.90
20881;DHT22;10600;53.096;8.802;2024-01-16T00:19:17;0.90;99.90
20881;DHT22;10600;53.096;8.802;2024-01-16T00:20:17;0.80;99.90
20881;DHT22;10600;53.096;8.802;2024-01-16T00:21:18;0.90;99.90
20881;DHT22;10600;53.096;8.802;2024-01-16T00:22:18;0.80;99.90
20881;DHT22;10600;53.096;8.802;2024-01-16T00:23:19;0.80;99.90
20881;DHT22;10600;53.096;8.802;2024-01-16T00:24:19;0.80;99.90
20881;DHT22;10600;53.096;8.802;2024-01-16T00:25:20;0.80;99.90
20881;DHT22;10600;53.096;8.802;2024-01-16T00:26:21;0.80;99.90
20881;DHT22;10600;53.096;8.802;2024-01-16T00:27:22;0.80;99.90
20881;DHT22;10600;53.096;8.802;2024-01-16T00:28:23;0.80;99.90
20881;DHT22;10600;53.096;8.802;2024-01-16T00:29:23;0.80;99.90
20881;DHT22;10600;53.096;8.802;2024-01-16T00:30:24;0.80;99.90
20881;DHT22;10600;53.096;8.802;2024-01-16T00:31:24;0.80;99.90
20881;DHT22;10600;53.096;8.802;2024-01-16T00:32:25;0.80;99.90
20881;DHT22;10600;53.096;8.802;2024-01-16T00:33:25;0.80;99.90
20881;DHT22;10600;53.096;8.802;2024-01-16T00:34:27;0.80;99.90
20881;DHT22;10600;53.096;8.802;2024-01-16T00:35:28;0.80;99.90
20881;DHT22;10600;53.096;8.802;2024-01-16T00:36:28;0.80;99.90
20881;DHT22;10600;53.096;8.802;2024-01-16T00:37:29;0.80;99.90
20881;DHT22;10600;53.096;8.802;2024-01-16T00:38:33;0.80;99.90
20881;DHT22;10600;53.096;8.802;2024-01-16T00:39:33;0.90;99.90
20881;DHT22;10600;53.096;8.802;2024-01-16T00:40:34;0.90;99.90
20881;DHT22;10600;53.096;8.802;2024-01-16T00:41:34;0.90;99.90
20881;DHT22;10600;53.096;8.802;2024-01-16T00:42:35;0.90;99.90
20881;DHT22;10600;53.096;8.802;2024-01-16T00:43:35;0.90;99.90
20881;DHT22;10600;53.096;8.802;2024-01-16T00:44:36;0.90;99.90
20881;DHT22;10600;53.096;8.802;2024-01-16T00:45:36;0.80;99.90
20881;DHT22;10600;53.096;8.802;2024-01-16T00:46:37;0.80;99.90
20881;DHT22;10600;53.096;8.802;2024-01-16T00:47:37;0.80;99.90
20881;DHT22;10600;53.096;8.802;2024-01-16T00:48:38;0.80;99.90
20881;DHT22;10600;53.096;8.802;2024-01-16T00:49:39;0.80;99.90
20881;DHT22;10600;53.096;8.802;2024-01-16T00:50:39;0.80;99.90
20881;DHT22;10600;53.096;8.802;2024-01-16T00:51:40;0.80;99.90
20881;DHT22;10600;53.096;8.802;2024-01-16T00:52:40;0.80;99.90
20881;DHT22;10600;53.096;8.802;2024-01-16T00:53:42;0.80;99.90
20881;DHT22;10600;53.096;8.802;2024-01-16T00:54:43;0.80;99.90
20881;DHT22;10600;53.096;8.802;2024-01-16T00:55:44;0.80;99.90
20881;DHT22;10600;53.096;8.802;2024-01-16T00:56:44;0.70;99.90
20881;DHT22;10600;53.096;8.802;2024-01-16T00:57:45;0.70;99.90
20881;DHT22;10600;53.096;8.802;2024-01-16T00:58:45;0.70;99.90
20881;DHT22;10600;53.096;8.802;2024-01-16T00:59:46;0.70;99.90
20881;DHT22;10600;53.096;8.802;2024-01-16T01:00:47;0.70;99.90
20881;DHT22;10600;53.096;8.802;2024-01-16T01:01:47;0.70;99.90
20881;DHT22;10600;53.096;8.802;2024-01-16T01:02:48;0.70;99.90
20881;DHT22;10600;53.096;8.802;2024-01-16T01:03:48;0.70;99.90
20881;DHT22;10600;53.096;8.802;2024-01-16T01:04:49;0.70;99.90
20881;DHT22;10600;53.096;8.802;2024-01-16T01:05:50;0.70;99.90
20881;DHT22;10600;53.096;8.802;2024-01-16T01:06:50;0.70;99.90
20881;DHT22;10600;53.096;8.802;2024-01-16T01:07:51;0.70;99.90
20881;DHT22;10600;53.096;8.802;2024-01-16T01:08:51;0.70;99.90
20881;DHT22;10600;53.096;8.802;2024-01-16T01:09:52;0.70;99.90
20881;DHT22;10600;53.096;8.802;2024-01-16T01:10:53;0.70;99.90
20881;DHT22;10600;53.096;8.802;2024-01-16T01:11:53;0.70;99.90
20881;DHT22;10600;53.096;8.802;2024-01-16T01:12:54;0.70;99.90
20881;DHT22;10600;53.096;8.802;2024-01-16T01:13:54;0.70;99.90
20881;DHT22;10600;53.096;8.802;2024-01-16T01:14:55;0.70;99.90
20881;DHT22;10600;53.096;8.802;2024-01-16T01:15:55;0.70;99.90
20881;DHT22;10600;53.096;8.802;2024-01-16T01:16:56;0.70;99.90
20881;DHT22;10600;53.096;8.802;2024-01-16T01:17:56;0.70;99.90
20881;DHT22;10600;53.096;8.802;2024-01-16T01:18:57;0.70;99.90
20881;DHT22;10600;53.096;8.802;2024-01-16T01:19:57;0.80;99.90
20881;DHT22;10600;53.096;8.802;2024-01-16T01:20:58;0.70;99.90
20881;DHT22;10600;53.096;8.802;2024-01-16T01:21:58;0.70;99.90
20881;DHT22;10600;53.096;8.802;2024-01-16T01:22:59;0.80;99.90
20881;DHT22;10600;53.096;8.802;2024-01-16T01:24:00;0.80;99.90
20881;DHT22;10600;53.096;8.802;2024-01-16T01:25:00;0.70;99.90
20881;DHT22;10600;53.096;8.802;2024-01-16T01:26:01;0.80;99.90
20881;DHT22;10600;53.096;8.802;2024-01-16T01:27:02;0.70;99.90
20881;DHT22;10600;53.096;8.802;2024-01-16T01:28:02;0.80;99.90
20881;DHT22;10600;53.096;8.802;2024-01-16T01:29:03;0.70;99.90
20881;DHT22;10600;53.096;8.802;2024-01-16T01:30:04;0.70;99.90
20881;DHT22;10600;53.096;8.802;2024-01-16T01:31:05;0.80;99.90
20881;DHT22;10600;53.096;8.802;2024-01-16T01:32:05;0.70;99.90
20881;DHT22;10600;53.096;8.802;2024-01-16T01:33:06;0.80;99.90
20881;DHT22;10600;53.096;8.802;2024-01-16T01:34:06;0.70;99.90
20881;DHT22;10600;53.096;8.802;2024-01-16T01:35:07;0.80;99.90
20881;DHT22;10600;53.096;8.802;2024-01-16T01:36:08;0.70;99.90
20881;DHT22;10600;53.096;8.802;2024-01-16T01:37:12;0.80;99.90
20881;DHT22;10600;53.096;8.802;2024-01-16T01:38:12;0.80;99.90
20881;DHT22;10600;53.096;8.802;2024-01-16T01:39:13;0.80;99.90
20881;DHT22;10600;53.096;8.802;2024-01-16T01:40:14;0.80;99.90
20881;DHT22;10600;53.096;8.802;2024-01-16T01:41:17;0.80;99.90
20881;DHT22;10600;53.096;8.802;2024-01-16T01:42:17;0.80;99.90
20881;DHT22;10600;53.096;8.802;2024-01-16T01:43:22;0.80;99.90
20881;DHT22;10600;53.096;8.802;2024-01-16T01:44:23;0.80;99.90
20881;DHT22;10600;53.096;8.802;2024-01-16T01:45:25;0.80;99.90
20881;DHT22;10600;53.096;8.802;2024-01-16T01:46:25;0.80;99.90
20881;DHT22;10600;53.096;8.802;2024-01-16T01:47:26;0.80;99.90
20881;DHT22;10600;53.096;8.802;2024-01-16T01:48:27;0.80;99.90
20881;DHT22;10600;53.096;8.802;2024-01-16T01:49:28;0.70;99.90
20881;DHT22;10600;53.096;8.802;2024-01-16T01:50:28;0.70;99.90
20881;DHT22;10600;53.096;8.802;2024-01-16T01:51:29;0.70;99.90
20881;DHT22;10600;53.096;8.802;2024-01-16T01:52:31;0.70;99.90
20881;DHT22;10600;53.096;8.802;2024-01-16T01:53:33;0.70;99.90
20881;DHT22;10600;53.096;8.802;2024-01-16T01:54:36;0.70;99.90
20881;DHT22;10600;53.096;8.802;2024-01-16T01:55:37;0.70;99.90
20881;DHT22;10600;53.096;8.802;2024-01-16T01:56:37;0.70;99.90
20881;DHT22;10600;53.096;8.802;2024-01-16T01:57:39;0.60;99.90
20881;DHT22;10600;53.096;8.802;2024-01-16T01:58:41;0.60;99.90
20881;DHT22;10600;53.096;8.802;2024-01-16T01:59:43;0.70;99.90
20881;DHT22;10600;53.096;8.802;2024-01-16T02:00:44;0.60;99.90
20881;DHT22;10600;53.096;8.802;2024-01-16T02:01:46;0.60;99.90
20881;DHT22;10600;53.096;8.802;2024-01-16T02:02:47;0.70;99.90
20881;DHT22;10600;53.096;8.802;2024-01-16T02:03:49;0.60;99.90
20881;DHT22;10600;53.096;8.802;2024-01-16T02:04:50;0.60;99.90
20881;DHT22;10600;53.096;8.802;2024-01-16T02:05:51;0.60;99.90
20881;DHT22;10600;53.096;8.802;2024-01-16T02:06:53;0.60;99.90
20881;DHT22;10600;53.096;8.802;2024-01-16T02:07:54;0.60;99.90
20881;DHT22;10600;53.096;8.802;2024-01-16T02:08:54;0.60;99.90
20881;DHT22;10600;53.096;8.802;2024-01-16T02:09:55;0.50;99.90
20881;DHT22;10600;53.096;8.802;2024-01-16T02:10:56;0.50;99.90
20881;DHT22;10600;53.096;8.802;2024-01-16T02:11:56;0.50;99.90
20881;DHT22;10600;53.096;8.802;2024-01-16T02:12:57;0.50;99.90
20881;DHT22;10600;53.096;8.802;2024-01-16T02:13:58;0.40;99.90
20881;DHT22;10600;53.096;8.802;2024-01-16T02:14:58;0.40;99.90
20881;DHT22;10600;53.096;8.802;2024-01-16T02:15:59;0.40;99.90
20881;DHT22;10600;53.096;8.802;2024-01-16T02:17:00;0.40;99.90
20881;DHT22;10600;53.096;8.802;2024-01-16T02:18:00;0.40;99.90
20881;DHT22;10600;53.096;8.802;2024-01-16T02:19:01;0.40;99.90
20881;DHT22;10600;53.096;8.802;2024-01-16T02:20:01;0.40;99.90
20881;DHT22;10600;53.096;8.802;2024-01-16T02:21:05;0.40;99.90
20881;DHT22;10600;53.096;8.802;2024-01-16T02:22:09;0.30;99.90
20881;DHT22;10600;53.096;8.802;2024-01-16T02:23:14;0.30;99.90
20881;DHT22;10600;53.096;8.802;2024-01-16T02:24:16;0.30;99.90
20881;DHT22;10600;53.096;8.802;2024-01-16T02:25:17;0.30;99.90
20881;DHT22;10600;53.096;8.802;2024-01-16T02:26:18;0.30;99.90
20881;DHT22;10600;53.096;8.802;2024-01-16T02:27:19;0.30;99.90
20881;DHT22;10600;53.096;8.802;2024-01-16T02:28:20;0.30;99.90
20881;DHT22;10600;53.096;8.802;2024-01-16T02:29:20;0.30;99.90
20881;DHT22;10600;53.096;8.802;2024-01-16T02:30:21;0.30;99.90
20881;DHT22;10600;53.096;8.802;2024-01-16T02:31:21;0.30;99.90
20881;DHT22;10600;53.096;8.802;2024-01-16T02:32:22;0.30;99.90
20881;DHT22;10600;53.096;8.802;2024-01-16T02:33:22;0.30;99.90
20881;DHT22;10600;53.096;8.802;2024-01-16T02:34:23;0.30;99.90
20881;DHT22;10600;53.096;8.802;2024-01-16T02:35:24;0.30;99.90
20881;DHT22;10600;53.096;8.802;2024-01-16T02:36:25;0.30;99.90
20881;DHT22;10600;53.096;8.802;2024-01-16T02:37:26;0.30;99.90
20881;DHT22;10600;53.096;8.802;2024-01-16T02:38:26;0.30;99.90
20881;DHT22;10600;53.096;8.802;2024-01-16T02:39:27;0.30;99.90
20881;DHT22;10600;53.096;8.802;2024-01-16T02:40:27;0.30;99.90
20881;DHT22;10600;53.096;8.802;2024-01-16T02:41:28;0.30;99.90
20881;DHT22;10600;53.096;8.802;2024-01-16T02:42:30;0.30;99.90
20881;DHT22;10600;53.096;8.802;2024-01-16T02:43:30;0.30;99.90
20881;DHT22;10600;53.096;8.802;2024-01-16T02:44:31;0.30;99.90
20881;DHT22;10600;53.096;8.802;2024-01-16T02:45:31;0.30;99.90
20881;DHT22;10600;53.096;8.802;2024-01-16T02:46:32;0.30;99.90
20881;DHT22;10600;53.096;8.802;2024-01-16T02:47:33;0.30;99.90
20881;DHT22;10600;53.096;8.802;2024-01-16T02:48:34;0.30;99.90
20881;DHT22;10600;53.096;8.802;2024-01-16T02:49:34;0.30;99.90
20881;DHT22;10600;53.096;8.802;2024-01-16T02:50:37;0.30;99.90
20881;DHT22;10600;53.096;8.802;2024-01-16T02:51:38;0.30;99.90
20881;DHT22;10600;53.096;8.802;2024-01-16T02:52:39;0.30;99.90
20881;DHT22;10600;53.096;8.802;2024-01-16T02:53:39;0.30;99.90
20881;DHT22;10600;53.096;8.802;2024-01-16T02:54:40;0.30;99.90
20881;DHT22;10600;53.096;8.802;2024-01-16T02:55:41;0.30;99.90
20881;DHT22;10600;53.096;8.802;2024-01-16T02:56:41;0.30;99.90
20881;DHT22;10600;53.096;8.802;2024-01-16T02:57:42;0.30;99.90
20881;DHT22;10600;53.096;8.802;2024-01-16T02:58:42;0.30;99.90
20881;DHT22;10600;53.096;8.802;2024-01-16T02:59:44;0.30;99.90
20881;DHT22;10600;53.096;8.802;2024-01-16T03:00:44;0.30;99.90
20881;DHT22;10600;53.096;8.802;2024-01-16T03:01:45;0.30;99.90
20881;DHT22;10600;53.096;8.802;2024-01-16T03:02:45;0.30;99.90
20881;DHT22;10600;53.096;8.802;2024-01-16T03:03:46;0.30;99.90
20881;DHT22;10600;53.096;8.802;2024-01-16T03:04:46;0.30;99.90
20881;DHT22;10600;53.096;8.802;2024-01-16T03:05:47;0.30;99.90
20881;DHT22;10600;53.096;8.802;2024-01-16T03:06:48;0.30;99.90
20881;DHT22;10600;53.096;8.802;2024-01-16T03:07:48;0.30;99.90
20881;DHT22;10600;53.096;8.802;2024-01-16T03:08:49;0.30;99.90
20881;DHT22;10600;53.096;8.802;2024-01-16T03:09:49;0.30;99.90
20881;DHT22;10600;53.096;8.802;2024-01-16T03:10:50;0.30;99.90
20881;DHT22;10600;53.096;8.802;2024-01-16T03:11:50;0.30;99.90
20881;DHT22;10600;53.096;8.802;2024-01-16T03:12:51;0.20;99.90
20881;DHT22;10600;53.096;8.802;2024-01-16T03:13:52;0.20;99.90
20881;DHT22;10600;53.096;8.802;2024-01-16T03:14:53;0.20;99.90
20881;DHT22;10600;53.096;8.802;2024-01-16T03:15:54;0.20;99.90
20881;DHT22;10600;53.096;8.802;2024-01-16T03:16:55;0.20;99.90
20881;DHT22;10600;53.096;8.802;2024-01-16T03:17:56;0.20;99.90
20881;DHT22;10600;53.096;8.802;2024-01-16T03:18:56;0.20;99.90
20881;DHT22;10600;53.096;8.802;2024-01-16T03:19:57;0.10;99.90
20881;DHT22;10600;53.096;8.802;2024-01-16T03:20:58;0.10;99.90
20881;DHT22;10600;53.096;8.802;2024-01-16T03:21:59;0.10;99.90
20881;DHT22;10600;53.096;8.802;2024-01-16T03:23:00;0.20;99.90
20881;DHT22;10600;53.096;8.802;2024-01-16T03:24:00;0.20;99.90
20881;DHT22;10600;53.096;8.802;2024-01-16T03:25:01;0.20;99.90
20881;DHT22;10600;53.096;8.802;2024-01-16T03:26:02;0.20;99.90
20881;DHT22;10600;53.096;8.802;2024-01-16T03:27:04;0.20;99.90
20881;DHT22;10600;53.096;8.802;2024-01-16T03:28:05;0.20;99.90
20881;DHT22;10600;53.096;8.802;2024-01-16T03:29:08;0.20;99.90
20881;DHT22;10600;53.096;8.802;2024-01-16T03:30:08;0.10;99.90
20881;DHT22;10600;53.096;8.802;2024-01-16T03:31:09;0.10;99.90
20881;DHT22;10600;53.096;8.802;2024-01-16T03:32:10;0.10;99.90
20881;DHT22;10600;53.096;8.802;2024-01-16T03:33:10;0.10;99.90
20881;DHT22;10600;53.096;8.802;2024-01-16T03:34:11;0.10;99.90
20881;DHT22;10600;53.096;8.802;2024-01-16T03:35:11;0.00;99.90
20881;DHT22;10600;53.096;8.802;2024-01-16T03:36:12;0.10;99.90
20881;DHT22;10600;53.096;8.802;2024-01-16T03:37:13;0.00;99.90
20881;DHT22;10600;53.096;8.802;2024-01-16T03:38:14;0.00;99.90
20881;DHT22;10600;53.096;8.802;2024-01-16T03:39:14;0.00;99.90
20881;DHT22;10600;53.096;8.802;2024-01-16T03:40:15;-0.10;99.90
20881;DHT22;10600;53.096;8.802;2024-01-16T03:41:16;0.00;99.90
20881;DHT22;10600;53.096;8.802;2024-01-16T03:42:16;0.00;99.90
20881;DHT22;10600;53.096;8.802;2024-01-16T03:43:17;-0.10;99.90
20881;DHT22;10600;53.096;8.802;2024-01-16T03:44:19;-0.10;99.90
20881;DHT22;10600;53.096;8.802;2024-01-16T03:45:19;-0.10;99.90
20881;DHT22;10600;53.096;8.802;2024-01-16T03:46:20;-0.10;99.90
20881;DHT22;10600;53.096;8.802;2024-01-16T03:47:20;-0.10;99.90
20881;DHT22;10600;53.096;8.802;2024-01-16T03:48:21;-0.10;99.90
20881;DHT22;10600;53.096;8.802;2024-01-16T03:49:21;-0.10;99.90
20881;DHT22;10600;53.096;8.802;2024-01-16T03:50:22;-0.10;99.90
20881;DHT22;10600;53.096;8.802;2024-01-16T03:51:22;-0.10;99.90
20881;DHT22;10600;53.096;8.802;2024-01-16T03:52:23;-0.10;99.90
20881;DHT22;10600;53.096;8.802;2024-01-16T03:53:23;-0.10;99.90
20881;DHT22;10600;53.096;8.802;2024-01-16T03:54:24;-0.20;99.90
20881;DHT22;10600;53.096;8.802;2024-01-16T03:55:25;-0.20;99.90
20881;DHT22;10600;53.096;8.802;2024-01-16T03:56:26;-0.20;99.90
20881;DHT22;10600;53.096;8.802;2024-01-16T03:57:27;-0.20;99.90
20881;DHT22;10600;53.096;8.802;2024-01-16T03:58:27;-0.20;99.90
20881;DHT22;10600;53.096;8.802;2024-01-16T03:59:28;-0.20;99.90
20881;DHT22;10600;53.096;8.802;2024-01-16T04:00:28;-0.20;99.90
20881;DHT22;10600;53.096;8.802;2024-01-16T04:01:33;-0.20;99.90
20881;DHT22;10600;53.096;8.802;2024-01-16T04:02:33;-0.30;99.90
20881;DHT22;10600;53.096;8.802;2024-01-16T04:03:34;-0.30;99.90
20881;DHT22;10600;53.096;8.802;2024-01-16T04:04:39;-0.30;99.90
20881;DHT22;10600;53.096;8.802;2024-01-16T04:05:40;-0.30;99.90
20881;DHT22;10600;53.096;8.802;2024-01-16T04:06:40;-0.30;99.90
20881;DHT22;10600;53.096;8.802;2024-01-16T04:07:41;-0.30;99.90
20881;DHT22;10600;53.096;8.802;2024-01-16T04:08:41;-0.30;99.90
20881;DHT22;10600;53.096;8.802;2024-01-16T04:09:42;-0.40;99.90
20881;DHT22;10600;53.096;8.802;2024-01-16T04:10:43;-0.40;99.90
20881;DHT22;10600;53.096;8.802;2024-01-16T04:11:43;-0.30;99.90
20881;DHT22;10600;53.096;8.802;2024-01-16T04:12:45;-0.40;99.90
20881;DHT22;10600;53.096;8.802;2024-01-16T04:13:46;-0.40;99.90
20881;DHT22;10600;53.096;8.802;2024-01-16T04:14:46;-0.40;99.90
20881;DHT22;10600;53.096;8.802;2024-01-16T04:15:50;-0.40;99.90
20881;DHT22;10600;53.096;8.802;2024-01-16T04:16:50;-0.40;99.90
20881;DHT22;10600;53.096;8.802;2024-01-16T04:17:51;-0.40;99.90
20881;DHT22;10600;53.096;8.802;2024-01-16T04:18:52;-0.40;99.90
20881;DHT22;10600;53.096;8.802;2024-01-16T04:19:52;-0.40;99.90
20881;DHT22;10600;53.096;8.802;2024-01-16T04:20:53;-0.40;99.90
20881;DHT22;10600;53.096;8.802;2024-01-16T04:21:53;-0.40;99.90
20881;DHT22;10600;53.096;8.802;2024-01-16T04:22:56;-0.40;99.90
20881;DHT22;10600;53.096;8.802;2024-01-16T04:23:58;-0.40;99.90
20881;DHT22;10600;53.096;8.802;2024-01-16T04:24:58;-0.40;99.90
20881;DHT22;10600;53.096;8.802;2024-01-16T04:25:59;-0.40;99.90
20881;DHT22;10600;53.096;8.802;2024-01-16T04:27:00;-0.40;99.90
20881;DHT22;10600;53.096;8.802;2024-01-16T04:28:00;-0.40;99.90
20881;DHT22;10600;53.096;8.802;2024-01-16T04:29:01;-0.40;99.90
20881;DHT22;10600;53.096;8.802;2024-01-16T04:30:02;-0.40;99.90
20881;DHT22;10600;53.096;8.802;2024-01-16T04:31:06;-0.50;99.90
20881;DHT22;10600;53.096;8.802;2024-01-16T04:32:07;-0.40;99.90
20881;DHT22;10600;53.096;8.802;2024-01-16T04:33:07;-0.40;99.90
20881;DHT22;10600;53.096;8.802;2024-01-16T04:34:08;-0.40;99.90
20881;DHT22;10600;53.096;8.802;2024-01-16T04:35:08;-0.50;99.90
20881;DHT22;10600;53.096;8.802;2024-01-16T04:36:09;-0.50;99.90
20881;DHT22;10600;53.096;8.802;2024-01-16T04:37:10;-0.40;99.90
20881;DHT22;10600;53.096;8.802;2024-01-16T04:38:11;-0.50;99.90
20881;DHT22;10600;53.096;8.802;2024-01-16T04:39:12;-0.50;99.90
20881;DHT22;10600;53.096;8.802;2024-01-16T04:40:12;-0.50;99.90
20881;DHT22;10600;53.096;8.802;2024-01-16T04:41:13;-0.50;99.90
20881;DHT22;10600;53.096;8.802;2024-01-16T04:42:13;-0.50;99.90
20881;DHT22;10600;53.096;8.802;2024-01-16T04:43:14;-0.50;99.90
20881;DHT22;10600;53.096;8.802;2024-01-16T04:44:14;-0.50;99.90
20881;DHT22;10600;53.096;8.802;2024-01-16T04:45:15;-0.50;99.90
20881;DHT22;10600;53.096;8.802;2024-01-16T04:46:15;-0.50;99.90
20881;DHT22;10600;53.096;8.802;2024-01-16T04:47:16;-0.50;99.90
20881;DHT22;10600;53.096;8.802;2024-01-16T04:48:17;-0.50;99.90
20881;DHT22;10600;53.096;8.802;2024-01-16T04:49:17;-0.50;99.90
20881;DHT22;10600;53.096;8.802;2024-01-16T04:50:19;-0.50;99.90
20881;DHT22;10600;53.096;8.802;2024-01-16T04:51:19;-0.60;99.90
20881;DHT22;10600;53.096;8.802;2024-01-16T04:52:20;-0.60;99.90
20881;DHT22;10600;53.096;8.802;2024-01-16T04:53:20;-0.60;99.90
20881;DHT22;10600;53.096;8.802;2024-01-16T04:54:21;-0.60;99.90
20881;DHT22;10600;53.096;8.802;2024-01-16T04:55:21;-0.60;99.90
20881;DHT22;10600;53.096;8.802;2024-01-16T04:56:22;-0.60;99.90
20881;DHT22;10600;53.096;8.802;2024-01-16T04:57:22;-0.60;99.90
20881;DHT22;10600;53.096;8.802;2024-01-16T04:58:23;-0.60;99.90
20881;DHT22;10600;53.096;8.802;2024-01-16T04:59:23;-0.60;99.90
20881;DHT22;10600;53.096;8.802;2024-01-16T05:00:24;-0.60;99.90
20881;DHT22;10600;53.096;8.802;2024-01-16T05:01:24;-0.60;99.90
20881;DHT22;10600;53.096;8.802;2024-01-16T05:02:25;-0.60;99.90
20881;DHT22;10600;53.096;8.802;2024-01-16T05:03:26;-0.60;99.90
20881;DHT22;10600;53.096;8.802;2024-01-16T05:04:26;-0.60;99.90
20881;DHT22;10600;53.096;8.802;2024-01-16T05:05:27;-0.60;99.90
20881;DHT22;10600;53.096;8.802;2024-01-16T05:06:27;-0.60;99.90
20881;DHT22;10600;53.096;8.802;2024-01-16T05:07:28;-0.60;99.90
20881;DHT22;10600;53.096;8.802;2024-01-16T05:08:28;-0.60;99.90
20881;DHT22;10600;53.096;8.802;2024-01-16T05:09:30;-0.60;99.90
20881;DHT22;10600;53.096;8.802;2024-01-16T05:10:31;-0.60;99.90
20881;DHT22;10600;53.096;8.802;2024-01-16T05:11:31;-0.60;99.90
20881;DHT22;10600;53.096;8.802;2024-01-16T05:12:32;-0.60;99.90
20881;DHT22;10600;53.096;8.802;2024-01-16T05:13:33;-0.60;99.90
20881;DHT22;10600;53.096;8.802;2024-01-16T05:14:33;-0.60;99.90
20881;DHT22;10600;53.096;8.802;2024-01-16T05:15:34;-0.60;99.90
20881;DHT22;10600;53.096;8.802;2024-01-16T05:16:34;-0.60;99.90
20881;DHT22;10600;53.096;8.802;2024-01-16T05:17:35;-0.60;99.90
20881;DHT22;10600;53.096;8.802;2024-01-16T05:18:35;-0.60;99.90
20881;DHT22;10600;53.096;8.802;2024-01-16T05:19:36;-0.50;99.90
20881;DHT22;10600;53.096;8.802;2024-01-16T05:20:36;-0.50;99.90
20881;DHT22;10600;53.096;8.802;2024-01-16T05:21:37;-0.40;99.90
20881;DHT22;10600;53.096;8.802;2024-01-16T05:22:38;-0.50;99.90
20881;DHT22;10600;53.096;8.802;2024-01-16T05:23:41;-0.40;99.90
20881;DHT22;10600;53.096;8.802;2024-01-16T05:24:41;-0.40;99.90
20881;DHT22;10600;53.096;8.802;2024-01-16T05:25:42;-0.40;99.90
20881;DHT22;10600;53.096;8.802;2024-01-16T05:26:42;-0.40;99.90
20881;DHT22;10600;53.096;8.802;2024-01-16T05:27:43;-0.40;99.90
20881;DHT22;10600;53.096;8.802;2024-01-16T05:28:44;-0.40;99.90
20881;DHT22;10600;53.096;8.802;2024-01-16T05:29:44;-0.40;99.90
20881;DHT22;10600;53.096;8.802;2024-01-16T05:30:45;-0.30;99.90
20881;DHT22;10600;53.096;8.802;2024-01-16T05:31:45;-0.30;99.90
20881;DHT22;10600;53.096;8.802;2024-01-16T05:32:46;-0.30;99.90
20881;DHT22;10600;53.096;8.802;2024-01-16T05:33:47;-0.30;99.90
20881;DHT22;10600;53.096;8.802;2024-01-16T05:34:47;-0.30;99.90
20881;DHT22;10600;53.096;8.802;2024-01-16T05:35:48;-0.40;99.90
20881;DHT22;10600;53.096;8.802;2024-01-16T05:36:51;-0.40;99.90
20881;DHT22;10600;53.096;8.802;2024-01-16T05:37:52;-0.30;99.90
20881;DHT22;10600;53.096;8.802;2024-01-16T05:38:52;-0.40;99.90
20881;DHT22;10600;53.096;8.802;2024-01-16T05:39:53;-0.40;99.90
20881;DHT22;10600;53.096;8.802;2024-01-16T05:40:54;-0.40;99.90
20881;DHT22;10600;53.096;8.802;2024-01-16T05:41:54;-0.40;99.90
20881;DHT22;10600;53.096;8.802;2024-01-16T05:43:01;-0.40;99.90
20881;DHT22;10600;53.096;8.802;2024-01-16T05:44:02;-0.40;99.90
20881;DHT22;10600;53.096;8.802;2024-01-16T05:45:06;-0.40;99.90
20881;DHT22;10600;53.096;8.802;2024-01-16T05:46:16;-0.40;99.90
20881;DHT22;10600;53.096;8.802;2024-01-16T05:47:19;-0.40;99.90
20881;DHT22;10600;53.096;8.802;2024-01-16T05:48:20;-0.40;99.90
20881;DHT22;10600;53.096;8.802;2024-01-16T05:49:20;-0.40;99.90
20881;DHT22;10600;53.096;8.802;2024-01-16T05:50:21;-0.40;99.90
20881;DHT22;10600;53.096;8.802;2024-01-16T05:51:21;-0.40;99.90
20881;DHT22;10600;53.096;8.802;2024-01-16T05:52:22;-0.40;99.90
20881;DHT22;10600;53.096;8.802;2024-01-16T05:53:23;-0.40;99.90
20881;DHT22;10600;53.096;8.802;2024-01-16T05:54:27;-0.40;99.90
20881;DHT22;10600;53.096;8.802;2024-01-16T05:55:27;-0.30;99.90
20881;DHT22;10600;53.096;8.802;2024-01-16T05:56:30;-0.30;99.90
20881;DHT22;10600;53.096;8.802;2024-01-16T05:57:31;-0.30;99.90
20881;DHT22;10600;53.096;8.802;2024-01-16T05:58:33;-0.30;99.90
20881;DHT22;10600;53.096;8.802;2024-01-16T05:59:38;-0.30;99.90
20881;DHT22;10600;53.096;8.802;2024-01-16T06:00:39;-0.30;99.90
20881;DHT22;10600;53.096;8.802;2024-01-16T06:01:41;-0.20;99.90
20881;DHT22;10600;53.096;8.802;2024-01-16T06:02:41;-0.20;99.90
20881;DHT22;10600;53.096;8.802;2024-01-16T06:03:42;-0.20;99.90
20881;DHT22;10600;53.096;8.802;2024-01-16T06:04:45;-0.20;99.90
20881;DHT22;10600;53.096;8.802;2024-01-16T06:05:46;-0.20;99.90
20881;DHT22;10600;53.096;8.802;2024-01-16T06:06:47;-0.20;99.90
20881;DHT22;10600;53.096;8.802;2024-01-16T06:07:48;-0.20;99.90
20881;DHT22;10600;53.096;8.802;2024-01-16T06:08:48;-0.10;99.90
20881;DHT22;10600;53.096;8.802;2024-01-16T06:09:49;-0.10;99.90
20881;DHT22;10600;53.096;8.802;2024-01-16T06:10:49;-0.10;99.90
20881;DHT22;10600;53.096;8.802;2024-01-16T06:11:50;-0.10;99.90
20881;DHT22;10600;53.096;8.802;2024-01-16T06:12:50;-0.10;99.90
20881;DHT22;10600;53.096;8.802;2024-01-16T06:13:51;-0.10;99.90
20881;DHT22;10600;53.096;8.802;2024-01-16T06:14:51;-0.10;99.90
20881;DHT22;10600;53.096;8.802;2024-01-16T06:15:52;-0.10;99.90
20881;DHT22;10600;53.096;8.802;2024-01-16T06:16:52;-0.10;99.90
20881;DHT22;10600;53.096;8.802;2024-01-16T06:17:53;-0.10;99.90
20881;DHT22;10600;53.096;8.802;2024-01-16T06:18:53;0.00;99.90
20881;DHT22;10600;53.096;8.802;2024-01-16T06:19:54;0.00;99.90
20881;DHT22;10600;53.096;8.802;2024-01-16T06:20:55;0.00;99.90
20881;DHT22;10600;53.096;8.802;2024-01-16T06:21:55;0.00;99.90
20881;DHT22;10600;53.096;8.802;2024-01-16T06:22:56;0.00;99.90
20881;DHT22;10600;53.096;8.802;2024-01-16T06:23:56;0.00;99.90
20881;DHT22;10600;53.096;8.802;2024-01-16T06:24:57;0.00;99.90
20881;DHT22;10600;53.096;8.802;2024-01-16T06:25:59;0.00;99.90
20881;DHT22;10600;53.096;8.802;2024-01-16T06:27:00;0.00;99.90
20881;DHT22;10600;53.096;8.802;2024-01-16T06:28:00;0.00;99.90